Nearby METAR Reports

(scroll for additional cities)

KPSP - Palm Springs, California, USA
Distance from station: WNW 7mi, 11km
Updated: Mon, 11-Dec-2017 11:57am PST
Clear
Clear
 Wind from calm
Wind: Calm
Temperature: 82°F , 28°C
Dew Point: -0°F , -18°C
Humidity: 4%
Barometer: 30.22 inHg , 1023.4 hPa
Clouds: Clear
Visibility: 10 miles , 16 km
2017/12/11 19:57 KPSP 111957Z 00000KT 10SM CLR 28/M18 A3022 RMK AO2 T02781183
KTRM - Thermal/Palm Spg, California, USA
Distance from station: SE 16mi, 26km
Updated: Mon, 11-Dec-2017 11:52am PST
Clear
Clear
 Wind from WNW
Wind: WNW 3 mph , 6 km/h
Temperature: 81°F , 27°C
Dew Point: 1°F , -17°C
Humidity: 4%
Barometer: 30.19 inHg , 1022.4 hPa
Clouds: Clear
2017/12/11 19:52 KTRM 111952Z AUTO 29003KT CLR 27/M17 A3019 RMK AO2 SLP223 T02671172 PWINO PNO $
 
KNXP - Twentynine Palms, California, USA
Distance from station: NNE 37mi, 60km
Updated: Mon, 11-Dec-2017 11:56am PST
Partly Cloudy
Partly Cloudy
 Wind from NW
Wind: NW 5 mph , 7 km/h
Temperature: 70°F , 21°C
Dew Point: -13°F , -25°C
Humidity: 3%
Barometer: 30.36 inHg , 1028.1 hPa
Clouds: Partly Cloudy
Visibility: 10 miles , 16 km
Cloud details: Partly Cloudy 25000 ft
2017/12/11 19:56 KNXP 111956Z 31004KT 10SM SCT250 21/M25 A3036 RMK AO2 SLP259 T02061250
KL35 - Big Bear City, California, USA
Distance from station: NW 43mi, 69km
Updated: Mon, 11-Dec-2017 12:15pm PST
Clear
Clear
 Wind from NE
Wind: NE 8 mph , 13 km/h
Temperature: 54°F , 12°C
Dew Point: -8°F , -22°C
Humidity: 7%
Barometer: 30.40 inHg , 1029.5 hPa
Clouds: Clear
Visibility: 10 miles , 16 km
2017/12/11 20:15 KL35 112015Z AUTO 05007KT 10SM CLR 12/M22 A3040 RMK AO2
 
KF70 - Murrieta/Temecula, California, USA
Distance from station: WSW 45mi, 73km
Updated: Mon, 11-Dec-2017 12:15pm PST
Clear
Clear
 Wind from calm
Wind: Calm
Temperature: 75°F , 24°C
Dew Point: 12°F , -11°C
Humidity: 9%
Barometer: 30.20 inHg , 1022.7 hPa
Clouds: Clear
Visibility: 10 miles , 16 km
2017/12/11 20:15 KF70 112015Z AUTO 00000KT 10SM CLR 24/M11 A3020 RMK AO1
KRIV - Riverside/March, California, USA
Distance from station: W 51mi, 82km
Updated: Mon, 11-Dec-2017 11:58am PST
Clear
Clear
 Wind from N
Wind: N 10 mph , 17 km/h
Temperature: 79°F , 26°C
Dew Point: -2°F , -19°C
Humidity: 4%
Barometer: 30.21 inHg , 1023 hPa
Clouds: Clear
Visibility: 10 miles , 16 km
2017/12/11 19:58 KRIV 111958Z AUTO 01009KT 10SM CLR 26/M19 A3021 RMK AO2 SLP223 T02581194
 
KSBD - San Bernardino, California, USA
Distance from station: WNW 54mi, 86km
Updated: Mon, 11-Dec-2017 11:50am PST
Mostly Cloudy
Mostly Cloudy
 Wind from calm
Wind: Calm
Temperature: 79°F , 26°C
Dew Point: 7°F , -14°C
Humidity: 6%
Barometer: 30.21 inHg , 1023 hPa
Clouds: Mostly Cloudy
Visibility: 07 miles , 11 km
Cloud details: Mostly Cloudy 15000 ft
2017/12/11 19:50 KSBD 111950Z 00000KT 07SM BKN150 26/M14 A3021
KRNM - Ramona, California, USA
Distance from station: SSW 60mi, 96km
Updated: Mon, 11-Dec-2017 11:53am PST
Clear
Clear
 Wind from ENE
Wind: ENE 14 mph , 22 km/h
Temperature: 81°F , 27°C
Dew Point: 7°F , -14°C
Humidity: 6%
Barometer: 30.19 inHg , 1022.4 hPa
Clouds: Clear
Visibility: 10 miles , 16 km
2017/12/11 19:53 KRNM 111953Z 06012KT 10SM CLR 27/M14 A3019 RMK AO2 SLP212 T02721144
 
KRAL - Riverside, California, USA
Distance from station: W 62mi, 100km
Updated: Mon, 11-Dec-2017 11:53am PST
Partly Cloudy
Partly Cloudy
 Wind from NE
Wind: NE 7 mph , 11 km/h
Temperature: 81°F , 27°C
Dew Point: 5°F , -15°C
Humidity: 5%
Barometer: 30.20 inHg , 1022.7 hPa
Clouds: Partly Cloudy
Visibility: 10 miles , 16 km
Cloud details: Partly Cloudy 20000 ft
2017/12/11 19:53 KRAL 111953Z 04006KT 10SM SCT200 27/M15 A3020 RMK AO2 SLP213 T02721150
KOKB - Oceanside, California, USA
Distance from station: SW 68mi, 109km
Updated: Mon, 11-Dec-2017 11:52am PST
Clear
Clear
 Wind from SW
Wind: SW 6 mph , 9 km/h
Temperature: 81°F , 27°C
Dew Point: 19°F , -7°C
Humidity: 10%
Barometer: 30.16 inHg , 1021.3 hPa
Clouds: Clear
Visibility: 10 miles , 16 km
2017/12/11 19:52 KOKB 111952Z AUTO 23005KT 10SM CLR 27/M07 A3016 RMK AO2 SLP213 T02671072
 
KONT - Ontario, California, USA
Distance from station: WNW 71mi, 114km
Updated: Mon, 11-Dec-2017 11:53am PST
Partly Cloudy
Partly Cloudy
 Wind from WNW
Wind: WNW 7 mph , 11 km/h
Temperature: 79°F , 26°C
Dew Point: 3°F , -16°C
Humidity: 5%
Barometer: 30.20 inHg , 1022.7 hPa
Clouds: Partly Cloudy
Visibility: 10 miles , 16 km
Cloud details: Partly Cloudy 25000 ft
2017/12/11 19:53 KONT 111953Z 29006KT 10SM SCT250 26/M16 A3020 RMK AO2 SLP215 T02611156
KNJK - El Centro Naf, California, USA
Distance from station: SSE 78mi, 126km
Updated: Mon, 11-Dec-2017 11:56am PST
Mostly Cloudy
Mostly Cloudy
 Wind from calm
Wind: Calm
Temperature: 79°F , 26°C
Dew Point: -0°F , -18°C
Humidity: 4%
Barometer: 30.21 inHg , 1023 hPa
Clouds: Mostly Cloudy
Visibility: 10 miles , 16 km
Cloud details: Few Clouds 18000 ft
Mostly Cloudy 25000 ft
2017/12/11 19:56 KNJK 111956Z 00000KT 10SM FEW180 BKN250 26/M18 A3021 RMK AO2 SLP247 T02611183 $
 
KSEE - San Diego/Santee, California, USA
Distance from station: SSW 74mi, 120km
Updated: Mon, 11-Dec-2017 11:47am PST
Clear
Clear
 Wind from calm
Wind: Calm
Temperature: 81°F , 27°C
Dew Point: 10°F , -12°C
Humidity: 7%
Barometer: 30.17 inHg , 1021.7 hPa
Clouds: Clear
Visibility: 10 miles , 16 km
2017/12/11 19:47 KSEE 111947Z 00000KT 10SM SKC 27/M12 A3017
KCNO - Chino, California, USA
Distance from station: W 72mi, 116km
Updated: Mon, 11-Dec-2017 11:53am PST
Partly Cloudy
Partly Cloudy
 Wind from N
Wind: N 3 mph , 6 km/h
Temperature: 82°F , 28°C
Dew Point: 25°F , -4°C
Humidity: 12%
Barometer: 30.20 inHg , 1022.7 hPa
Clouds: Partly Cloudy
Visibility: 10 miles , 16 km
Cloud details: Partly Cloudy 20000 ft
2017/12/11 19:53 KCNO 111953Z 01003KT 10SM SCT200 28/M04 A3020 RMK AO2 SLP220 T02831039